Flight Track Log - Related Links

Times and Time Zones

All times are in EST time to prevent confusion due to time zone crossing. See the N210PM flight status page for this flight to view local times or setup timezone preferences in your user account.

Time Position Orientation Groundspeed Altitude Reporting Facility
EST Latitude Longitude Course Direction KTS MPH feet Rate Location/Type
Wed 12:00:18 PM 40.8233 -96.7447 237° Southwest 152 175 2,000  Level Minneapolis Center
Wed 12:00:38 PM 40.8208 -96.7497 237° Southwest 169 194 2,900 3,000 Climbing Minneapolis Center
Wed 12:01:40 PM 40.7928 -96.7911 228° Southwest 187 215 6,100 2,855 Climbing Minneapolis Center
Wed 12:02:42 PM 40.8031 -96.8508 283° West 172 198 8,800 2,371 Climbing Minneapolis Center
Wed 12:03:44 PM 40.8153 -96.9142 284° West 175 201 11,000 2,129 Climbing Minneapolis Center
Wed 12:04:46 PM 40.8283 -96.9814 284° West 185 213 13,200 2,081 Climbing Minneapolis Center
Wed 12:05:48 PM 40.8403 -97.0456 284° West 183 211 15,300 2,226 Climbing Minneapolis Center
Wed 12:06:50 PM 40.8553 -97.1261 284° West 186 214 17,800 1,951 Climbing Minneapolis Center
Wed 12:07:51 PM 40.8686 -97.1931 285° West 188 216 19,300 1,512 Climbing Minneapolis Center
Wed 12:08:53 PM 40.8803 -97.2636 282° West 194 223 20,900 1,548 Climbing Minneapolis Center
Wed 12:09:55 PM 40.8936 -97.3339 284° West 196 226 22,500 1,597 Climbing Minneapolis Center
Wed 12:10:57 PM 40.9086 -97.4119 284° West 200 230 24,200 1,548 Climbing Minneapolis Center
Wed 12:11:59 PM 40.9219 -97.4844 284° West 202 232 25,700 1,403 Climbing Minneapolis Center
Wed 12:13:01 PM 40.9361 -97.5592 284° West 207 238 27,100 1,306 Climbing Minneapolis Center
Wed 12:14:03 PM 40.9497 -97.6353 283° West 211 243 28,400 1,210 Climbing Minneapolis Center
Wed 12:15:05 PM 40.9633 -97.7111 283° West 213 245 29,600 774 Climbing Minneapolis Center
Wed 12:16:07 PM 40.9786 -97.7928 284° West 222 255 30,000 732 Climbing Minneapolis Center
Wed 12:17:08 PM 40.9986 -97.9033 284° West 252 290 31,100 1,268 Climbing Minneapolis Center
Wed 12:18:10 PM 41.0150 -97.9903 284° West 248 285 32,600 919 Climbing Minneapolis Center
Wed 12:19:12 PM 41.0294 -98.0722 283° West 233 268 33,000 194 Climbing Minneapolis Center
Wed 12:20:14 PM 41.0456 -98.1653 283° West 251 289 33,000  Level Minneapolis Center
Wed 12:21:16 PM 41.0639 -98.2669 283° West 276 318 33,000  Level Minneapolis Center
Wed 12:22:18 PM 41.0831 -98.3714 284° West 287 330 33,000  Level Minneapolis Center
Wed 12:23:20 PM 41.1039 -98.4919 283° West 296 341 33,000  Level Minneapolis Center
Wed 12:24:22 PM 41.1228 -98.5986 283° West 298 343 33,000 97 Level Minneapolis Center
Wed 12:25:24 PM 41.1422 -98.7069 283° West 301 346 33,200 484 Climbing Minneapolis Center
Wed 12:26:26 PM 41.1617 -98.8108 284° West 298 343 34,000 387 Climbing Minneapolis Center
Wed 12:27:28 PM 41.1800 -98.9322 281° West 288 331 34,000  Level Minneapolis Center
Wed 12:28:30 PM 41.1986 -99.0375 283° West 290 334 34,000  Level Minneapolis Center
Wed 12:29:32 PM 41.2161 -99.1419 283° West 290 334 34,000  Level Minneapolis Center
Wed 12:30:24 PM 41.2303 -99.2258 283° West 292 336 34,000  Level Denver Center
Wed 12:31:26 PM 41.2475 -99.3311 282° West 292 336 34,000  Level Denver Center
Wed 12:32:40 PM 41.2728 -99.4764 283° West 290 334 34,000  Level Denver Center
Wed 12:33:42 PM 41.2878 -99.5772 281° West 290 334 34,000  Level Denver Center
Wed 12:34:44 PM 41.3083 -99.6942 283° West 291 335 34,000  Level Denver Center
Wed 12:35:46 PM 41.3242 -99.7942 282° West 289 333 34,000  Level Denver Center
Wed 12:36:48 PM 41.3433 -99.9100 282° West 289 333 34,000  Level Denver Center
Wed 12:37:50 PM 41.3594 -100.0106 282° West 289 333 34,000  Level Denver Center
Wed 12:38:52 PM 41.3756 -100.1114 282° West 291 335 34,000  Level Denver Center
Wed 12:39:54 PM 41.3936 -100.2289 282° West 292 336 34,000  Level Denver Center
Wed 12:40:57 PM 41.4108 -100.3300 283° West 293 337 34,000  Level Denver Center
Wed 12:41:59 PM 41.4281 -100.4464 281° West 289 333 34,000  Level Denver Center
Wed 12:43:01 PM 41.4433 -100.5472 281° West 290 334 34,000  Level Denver Center
Wed 12:44:03 PM 41.4625 -100.6661 282° West 294 338 34,000  Level Denver Center
Wed 12:45:05 PM 41.4781 -100.7681 282° West 294 338 34,000  Level Denver Center
Wed 12:46:07 PM 41.4958 -100.8883 281° West 297 342 34,000  Level Denver Center
Wed 12:47:09 PM 41.5119 -100.9908 282° West 297 342 34,000  Level Denver Center
Wed 12:48:11 PM 41.5311 -101.1125 282° West 301 346 34,000  Level Denver Center
Wed 12:49:13 PM 41.5472 -101.2156 282° West 298 343 34,000  Level Denver Center
Wed 12:50:15 PM 41.5639 -101.3378 280° West 299 344 34,000  Level Denver Center
Wed 12:51:17 PM 41.5789 -101.4417 281° West 299 344 34,000 -339 Level Denver Center
Wed 12:52:19 PM 41.5967 -101.5636 281° West 300 345 33,300 -1,016 Descending Denver Center
Wed 12:53:21 PM 41.6117 -101.6694 281° West 305 351 31,900 -1,548 Descending Denver Center
Wed 12:54:23 PM 41.6303 -101.7922 282° West 302 348 30,100 -1,694 Descending Denver Center
Wed 12:55:25 PM 41.6461 -101.8961 282° West 301 346 28,400 -1,645 Descending Denver Center
Wed 12:56:27 PM 41.6633 -102.0211 280° West 306 352 26,700 -1,597 Descending Denver Center
Wed 12:57:29 PM 41.6783 -102.1264 281° West 302 348 25,100 -1,645 Descending Denver Center
Wed 12:58:31 PM 41.6958 -102.2475 281° West 298 343 23,300 -1,412 Descending Denver Center
Wed 12:59:45 PM 41.7089 -102.3517 280° West 295 339 21,900 -1,489 Descending Denver Center
Wed 01:00:48 PM 41.7267 -102.4847 280° West 284 327 19,900 -1,632 Descending Denver Center
Wed 01:01:50 PM 41.7408 -102.5825 281° West 281 323 18,500 -1,355 Descending Denver Center
Wed 01:02:52 PM 41.7547 -102.6886 280° West 279 321 17,100 -1,500 Descending Denver Center
Wed 01:03:54 PM 41.7694 -102.8022 280° West 277 319 15,400 -1,500 Descending Denver Center
Wed 01:04:56 PM 41.7833 -102.8975 281° West 274 315 14,000 -1,452 Descending Denver Center
Wed 01:05:58 PM 41.7969 -103.0103 279° West 273 314 12,400 -1,403 Descending Denver Center
Wed 01:07:00 PM 41.8097 -103.1025 281° West 266 306 11,100 -1,258 Descending Denver Center
Wed 01:08:02 PM 41.8225 -103.2044 280° West 252 290 9,800 -1,258 Descending Denver Center

Login

Don't have an account? Register now (free) for customized features, flight alerts, and more!